GMMN/CMN METAR and TAF weather

Enter ICAO airport designator
Station Type Date Time Source
GMMN METAR 2018/12/12 16:00 UTC NOAA

GMMN 121600Z 01007KT 330V070 9999 BKN020 19/12 Q1022 NOSIG


Station Type Date Time Source
GMMN Decoded METAR 2018/12/12 16:00 UTC NOAA

Nouasseur, Morocco (GMMN) 33-22N 007-35W 206M
Dec 12, 2018 - 11:00 AM EST / 2018.12.12 1600 UTC
Wind: from the N (010 degrees) at 8 MPH (7 KT) (direction variable):0
Visibility: greater than 7 mile(s):0
Sky conditions: mostly cloudy
Temperature: 66 F (19 C)
Dew Point: 53 F (12 C)
Relative Humidity: 63%
Pressure (altimeter): 30.18 in. Hg (1022 hPa)
ob: GMMN 121600Z 01007KT 330V070 9999 BKN020 19/12 Q1022 NOSIG
cycle: 16

Station Type Date Time Source
GMMN TAF 2018/12/12 12:30 UTC NOAA

TAF TAF GMMN 121100Z 1212/1318 14005KT 9999 SCT016
BECMG 1214/1218 34010KT
BECMG 1220/1223 02005KT 6000
TEMPO 1302/1308 3000 BR SCT004
BECMG 1309/1312 34008KT 8000 BKN016
TEMPO 1313/1318 6000 RA


Example: see airport list